createdAt,value
2023-05-06T00:00:13.291Z,26.24
2023-05-06T00:00:43.773Z,26.26
2023-05-06T00:01:14.187Z,26.26
2023-05-06T00:01:44.605Z,26.25
2023-05-06T00:02:15.093Z,26.26
2023-05-06T00:02:45.582Z,26.27
2023-05-06T00:03:16.040Z,26.27
2023-05-06T00:03:46.946Z,26.27
2023-05-06T00:04:17.597Z,26.29
2023-05-06T00:04:48.093Z,26.30
2023-05-06T00:05:18.567Z,26.30
2023-05-06T00:05:48.967Z,26.30
2023-05-06T00:06:19.389Z,26.29
2023-05-06T00:06:49.824Z,26.28
2023-05-06T00:07:20.233Z,26.29
2023-05-06T00:07:50.669Z,26.28
2023-05-06T00:08:21.096Z,26.27
2023-05-06T00:08:51.529Z,26.24
2023-05-06T00:09:21.949Z,26.24
2023-05-06T00:09:52.382Z,26.26
2023-05-06T00:10:22.793Z,26.27
2023-05-06T00:10:53.220Z,26.27
2023-05-06T00:11:23.635Z,26.29
2023-05-06T00:11:54.062Z,26.29
2023-05-06T00:12:24.488Z,26.29
2023-05-06T00:12:54.952Z,26.28
2023-05-06T00:13:25.377Z,26.26
2023-05-06T00:13:55.770Z,26.25
2023-05-06T00:14:26.190Z,26.27
2023-05-06T00:14:56.618Z,26.24
2023-05-06T00:15:27.040Z,26.23
2023-05-06T00:15:57.479Z,26.24
2023-05-06T00:16:27.904Z,26.26
2023-05-06T00:16:58.318Z,26.25
2023-05-06T00:17:28.797Z,26.27
2023-05-06T00:17:59.209Z,26.28
2023-05-06T00:18:29.610Z,26.28
2023-05-06T00:19:00.028Z,26.29
2023-05-06T00:19:30.560Z,26.28
2023-05-06T00:20:00.928Z,26.25
2023-05-06T00:20:31.350Z,26.23
2023-05-06T00:21:01.778Z,26.23
2023-05-06T00:21:32.199Z,26.25
2023-05-06T00:22:02.633Z,26.25
2023-05-06T00:22:33.057Z,26.25
2023-05-06T00:23:03.479Z,26.19
2023-05-06T00:23:33.930Z,26.19
2023-05-06T00:24:04.374Z,26.19
2023-05-06T00:24:34.764Z,26.20
2023-05-06T00:25:05.269Z,26.20
2023-05-06T00:25:35.639Z,26.21
2023-05-06T00:26:06.081Z,26.22
2023-05-06T00:26:36.500Z,26.22
2023-05-06T00:27:06.943Z,26.22
2023-05-06T00:27:37.366Z,26.23
2023-05-06T00:28:07.793Z,26.24
2023-05-06T00:28:38.210Z,26.24
2023-05-06T00:29:08.629Z,26.24
2023-05-06T00:29:39.050Z,26.25
2023-05-06T00:30:09.478Z,26.26
2023-05-06T00:30:39.910Z,26.24
2023-05-06T00:31:10.323Z,26.23
2023-05-06T00:31:40.802Z,26.24
2023-05-06T00:32:11.416Z,26.23
2023-05-06T00:32:41.938Z,26.23
2023-05-06T00:33:12.434Z,26.23
2023-05-06T00:33:42.793Z,26.22
2023-05-06T00:34:13.214Z,26.24
2023-05-06T00:34:43.931Z,26.22
2023-05-06T00:35:14.295Z,26.22
2023-05-06T00:35:44.718Z,26.21
2023-05-06T00:36:15.172Z,26.23
2023-05-06T00:36:45.619Z,26.23
2023-05-06T00:37:16.030Z,26.23
2023-05-06T00:37:46.453Z,26.23
2023-05-06T00:38:16.882Z,26.22
2023-05-06T00:38:47.297Z,26.20
2023-05-06T00:39:17.743Z,26.18
2023-05-06T00:39:48.159Z,26.18
2023-05-06T00:40:18.580Z,26.20
2023-05-06T00:40:49.008Z,26.19
2023-05-06T00:41:19.442Z,26.18
2023-05-06T00:41:49.865Z,26.18
2023-05-06T00:42:20.293Z,26.19
2023-05-06T00:42:50.710Z,26.20
2023-05-06T00:43:21.136Z,26.20
2023-05-06T00:43:51.569Z,26.19
2023-05-06T00:44:21.989Z,26.19
2023-05-06T00:44:52.413Z,26.20
2023-05-06T00:45:22.840Z,26.18
2023-05-06T00:45:53.349Z,26.18
2023-05-06T00:46:23.824Z,26.15
2023-05-06T00:46:54.324Z,26.17
2023-05-06T00:47:24.757Z,26.17
2023-05-06T00:47:55.240Z,26.18
2023-05-06T00:48:25.763Z,26.20
2023-05-06T00:48:56.154Z,26.20
2023-05-06T00:49:26.570Z,26.17
2023-05-06T00:49:57.086Z,26.18
2023-05-06T00:50:27.447Z,26.18
2023-05-06T00:50:57.885Z,26.15
2023-05-06T00:51:28.319Z,26.14
2023-05-06T00:51:58.754Z,26.17
2023-05-06T00:52:29.168Z,26.17
2023-05-06T00:52:59.577Z,26.17
2023-05-06T00:53:30.020Z,26.17
2023-05-06T00:54:00.448Z,26.17
2023-05-06T00:54:30.887Z,26.15
2023-05-06T00:55:01.303Z,26.15
2023-05-06T00:55:31.767Z,26.15
2023-05-06T00:56:02.184Z,26.17
2023-05-06T00:56:32.606Z,26.16
2023-05-06T00:57:03.039Z,26.18
2023-05-06T00:57:33.458Z,26.18
2023-05-06T00:58:03.876Z,26.19
2023-05-06T00:58:34.306Z,26.16
2023-05-06T00:59:04.719Z,26.18
2023-05-06T00:59:35.141Z,26.17
2023-05-06T01:00:05.576Z,26.15
2023-05-06T01:00:36.036Z,26.15
2023-05-06T01:01:06.500Z,26.15
2023-05-06T01:01:36.932Z,26.15
2023-05-06T01:02:07.379Z,26.14
2023-05-06T01:02:46.242Z,26.14
2023-05-06T01:03:13.164Z,26.15
2023-05-06T01:03:43.739Z,26.14
2023-05-06T01:04:14.142Z,26.15
2023-05-06T01:04:44.583Z,26.14
2023-05-06T01:05:15.239Z,26.17
2023-05-06T01:05:45.627Z,26.14
2023-05-06T01:06:16.049Z,26.13
2023-05-06T01:06:46.463Z,26.13
2023-05-06T01:07:16.906Z,26.13
2023-05-06T01:07:47.326Z,26.14
2023-05-06T01:08:17.748Z,26.13
2023-05-06T01:08:48.173Z,26.13
2023-05-06T01:09:18.598Z,26.13
2023-05-06T01:09:49.015Z,26.13
2023-05-06T01:10:19.460Z,26.13
2023-05-06T01:10:49.870Z,26.14
2023-05-06T01:11:20.289Z,26.16
2023-05-06T01:11:50.721Z,26.13
2023-05-06T01:12:21.146Z,26.17
2023-05-06T01:12:51.584Z,26.15
2023-05-06T01:13:22.012Z,26.16
2023-05-06T01:13:52.425Z,26.10
2023-05-06T01:14:22.844Z,26.09
2023-05-06T01:14:53.272Z,26.11
2023-05-06T01:15:23.702Z,26.12
2023-05-06T01:15:54.150Z,26.13
2023-05-06T01:16:24.625Z,26.11
2023-05-06T01:16:55.076Z,26.10
2023-05-06T01:17:25.494Z,26.11
2023-05-06T01:17:55.938Z,26.11
2023-05-06T01:18:26.344Z,26.12
2023-05-06T01:18:56.735Z,26.11
2023-05-06T01:19:27.155Z,26.11
2023-05-06T01:19:57.590Z,26.12
2023-05-06T01:20:28.170Z,26.13
2023-05-06T01:20:58.537Z,26.13
2023-05-06T01:21:28.958Z,26.13
2023-05-06T01:21:59.393Z,26.15
2023-05-06T01:22:29.824Z,26.16
2023-05-06T01:23:00.262Z,26.12
2023-05-06T01:23:30.658Z,26.13
2023-05-06T01:24:01.101Z,26.13
2023-05-06T01:24:31.515Z,26.12
2023-05-06T01:25:01.941Z,26.12
2023-05-06T01:25:32.366Z,26.12
2023-05-06T01:26:02.804Z,26.13
2023-05-06T01:26:33.241Z,26.13
2023-05-06T01:27:03.661Z,26.12
2023-05-06T01:27:34.098Z,26.13
2023-05-06T01:28:04.506Z,26.14
2023-05-06T01:28:34.928Z,26.09
2023-05-06T01:29:05.346Z,26.07
2023-05-06T01:29:35.802Z,26.08
2023-05-06T01:30:06.222Z,26.09
2023-05-06T01:30:36.653Z,26.09
2023-05-06T01:31:07.116Z,26.08
2023-05-06T01:31:37.644Z,26.05
2023-05-06T01:32:08.063Z,26.07
2023-05-06T01:32:38.533Z,26.05
2023-05-06T01:33:08.916Z,26.02
2023-05-06T01:33:39.327Z,26.03
2023-05-06T01:34:09.770Z,26.03
2023-05-06T01:34:40.193Z,26.03
2023-05-06T01:35:10.815Z,26.04
2023-05-06T01:35:41.459Z,26.06
2023-05-06T01:36:11.828Z,26.10
2023-05-06T01:36:42.343Z,26.09
2023-05-06T01:37:12.723Z,26.10
2023-05-06T01:37:43.156Z,26.11
2023-05-06T01:38:13.586Z,26.07
2023-05-06T01:38:43.996Z,26.05
2023-05-06T01:39:14.426Z,26.05
2023-05-06T01:39:44.858Z,26.05
2023-05-06T01:40:15.282Z,26.06
2023-05-06T01:40:45.722Z,26.06
2023-05-06T01:41:16.126Z,26.05
2023-05-06T01:41:46.547Z,26.03
2023-05-06T01:42:16.974Z,26.01
2023-05-06T01:42:47.394Z,26.01
2023-05-06T01:43:17.826Z,26.03
2023-05-06T01:43:48.268Z,26.03
2023-05-06T01:44:18.690Z,26.04
2023-05-06T01:44:49.111Z,26.06
2023-05-06T01:45:19.539Z,26.07
2023-05-06T01:45:49.965Z,26.06
2023-05-06T01:46:20.433Z,26.05
2023-05-06T01:46:50.855Z,26.07
2023-05-06T01:47:21.268Z,26.07
2023-05-06T01:47:51.721Z,26.07
2023-05-06T01:48:22.113Z,26.09
2023-05-06T01:48:52.559Z,26.10
2023-05-06T01:49:22.977Z,26.10
2023-05-06T01:49:53.398Z,26.08
2023-05-06T01:50:23.824Z,26.10
2023-05-06T01:50:54.267Z,26.11
2023-05-06T01:51:24.674Z,26.12
2023-05-06T01:51:55.096Z,26.08
2023-05-06T01:52:25.523Z,26.07
2023-05-06T01:52:55.947Z,26.09
2023-05-06T01:53:26.381Z,26.06
2023-05-06T01:53:56.811Z,26.05
2023-05-06T01:54:27.230Z,26.06
2023-05-06T01:54:57.651Z,26.07
2023-05-06T01:55:28.090Z,26.07
2023-05-06T01:55:58.520Z,26.06
2023-05-06T01:56:28.937Z,26.06
2023-05-06T01:56:59.363Z,26.06
2023-05-06T01:57:29.789Z,26.05
2023-05-06T01:58:00.214Z,26.04
2023-05-06T01:58:30.644Z,26.03
2023-05-06T01:59:01.109Z,26.04
2023-05-06T01:59:31.531Z,26.00
2023-05-06T02:00:01.976Z,25.98
2023-05-06T02:00:32.377Z,25.99
2023-05-06T02:01:02.821Z,26.01
2023-05-06T02:01:33.260Z,26.01
2023-05-06T02:02:03.705Z,26.03
2023-05-06T02:02:34.579Z,26.03
2023-05-06T02:03:05.109Z,26.06
2023-05-06T02:03:35.607Z,26.08
2023-05-06T02:04:06.153Z,26.08
2023-05-06T02:04:36.584Z,26.08
2023-05-06T02:05:07.459Z,26.07
2023-05-06T02:05:37.993Z,26.05
2023-05-06T02:06:08.510Z,26.04
2023-05-06T02:06:38.879Z,26.04
2023-05-06T02:07:09.295Z,26.05
2023-05-06T02:07:39.727Z,26.05
2023-05-06T02:08:10.157Z,26.05
2023-05-06T02:08:40.578Z,26.05
2023-05-06T02:09:11.003Z,26.04
2023-05-06T02:09:41.427Z,26.03
2023-05-06T02:10:11.855Z,26.02
2023-05-06T02:10:42.271Z,26.01
2023-05-06T02:11:12.695Z,26.01
2023-05-06T02:11:43.114Z,26.02
2023-05-06T02:12:13.582Z,25.98
2023-05-06T02:12:44.069Z,25.98
2023-05-06T02:13:14.480Z,25.98
2023-05-06T02:13:44.962Z,26.00
2023-05-06T02:14:15.383Z,26.02
2023-05-06T02:14:45.804Z,26.01
2023-05-06T02:15:16.232Z,26.04
2023-05-06T02:15:46.705Z,26.05
2023-05-06T02:16:17.146Z,26.07
2023-05-06T02:16:47.558Z,26.01
2023-05-06T02:17:17.992Z,25.99
2023-05-06T02:17:48.476Z,26.00
2023-05-06T02:18:18.863Z,26.00
2023-05-06T02:18:49.284Z,26.02
2023-05-06T02:19:19.704Z,26.02
2023-05-06T02:19:50.127Z,26.03
2023-05-06T02:20:20.550Z,26.04
2023-05-06T02:20:50.982Z,26.05
2023-05-06T02:21:21.494Z,26.04
2023-05-06T02:21:51.855Z,26.04
2023-05-06T02:22:22.305Z,26.03
2023-05-06T02:22:52.737Z,26.01
2023-05-06T02:23:23.163Z,26.01
2023-05-06T02:23:53.583Z,26.02
2023-05-06T02:24:24.003Z,26.03
2023-05-06T02:24:54.429Z,26.02
2023-05-06T02:25:24.876Z,26.03
2023-05-06T02:25:55.274Z,26.01
2023-05-06T02:26:25.707Z,26.00
2023-05-06T02:26:56.140Z,25.97
2023-05-06T02:27:26.562Z,25.98
2023-05-06T02:27:57.003Z,26.00
2023-05-06T02:28:27.421Z,26.00
2023-05-06T02:28:57.834Z,25.98
2023-05-06T02:29:28.253Z,25.97
2023-05-06T02:29:58.695Z,25.99
2023-05-06T02:30:29.104Z,25.99
2023-05-06T02:30:59.532Z,25.97
2023-05-06T02:31:29.987Z,25.96
2023-05-06T02:32:00.442Z,25.95
2023-05-06T02:32:30.842Z,25.97
2023-05-06T02:33:01.366Z,25.98
2023-05-06T02:33:31.753Z,25.96
2023-05-06T02:34:02.173Z,25.96
2023-05-06T02:34:32.592Z,25.98
2023-05-06T02:35:03.035Z,25.98
2023-05-06T02:35:33.435Z,25.95
2023-05-06T02:36:03.866Z,25.96
2023-05-06T02:36:34.474Z,25.96
2023-05-06T02:37:04.858Z,25.95
2023-05-06T02:37:35.282Z,25.95
2023-05-06T02:38:05.730Z,25.99
2023-05-06T02:38:36.136Z,25.98
2023-05-06T02:39:06.562Z,25.98
2023-05-06T02:39:36.984Z,25.98
2023-05-06T02:40:07.405Z,25.98
2023-05-06T02:40:37.827Z,25.97
2023-05-06T02:41:08.262Z,25.98
2023-05-06T02:41:38.686Z,25.98
2023-05-06T02:42:09.110Z,26.00
2023-05-06T02:42:39.564Z,25.99
2023-05-06T02:43:09.965Z,26.00
2023-05-06T02:43:40.394Z,25.98
2023-05-06T02:44:10.803Z,25.93
2023-05-06T02:44:41.234Z,25.93
2023-05-06T02:45:11.854Z,25.94
2023-05-06T02:45:42.376Z,25.93
2023-05-06T02:46:12.859Z,25.97
2023-05-06T02:46:43.303Z,25.98
2023-05-06T02:47:13.723Z,25.97
2023-05-06T02:47:44.179Z,25.97
2023-05-06T02:48:14.585Z,25.96
2023-05-06T02:48:45.007Z,25.96
2023-05-06T02:49:15.427Z,25.98
2023-05-06T02:49:45.865Z,26.00
2023-05-06T02:50:16.289Z,25.99
2023-05-06T02:50:46.709Z,25.96
2023-05-06T02:51:17.180Z,25.99
2023-05-06T02:51:47.839Z,26.00
2023-05-06T02:52:18.205Z,25.99
2023-05-06T02:52:48.641Z,25.99
2023-05-06T02:53:19.078Z,25.98
2023-05-06T02:53:49.481Z,25.98
2023-05-06T02:54:19.918Z,25.98
2023-05-06T02:54:50.326Z,25.94
2023-05-06T02:55:20.753Z,25.95
2023-05-06T02:55:51.182Z,25.95
2023-05-06T02:56:21.613Z,25.97
2023-05-06T02:56:52.048Z,25.93
2023-05-06T02:57:22.465Z,25.92
2023-05-06T02:57:52.902Z,25.92
2023-05-06T02:58:23.324Z,25.92
2023-05-06T02:58:53.757Z,25.89
2023-05-06T02:59:24.162Z,25.89
2023-05-06T02:59:54.606Z,25.92
2023-05-06T03:00:25.002Z,25.91
2023-05-06T03:00:55.453Z,25.87
2023-05-06T03:01:25.932Z,25.89
2023-05-06T03:01:56.304Z,25.88
2023-05-06T03:02:26.783Z,25.87
2023-05-06T03:02:57.259Z,25.85
2023-05-06T03:03:27.803Z,25.88
2023-05-06T03:03:58.254Z,25.90
2023-05-06T03:04:28.722Z,25.90
2023-05-06T03:04:59.103Z,25.86
2023-05-06T03:05:29.545Z,25.88
2023-05-06T03:05:59.963Z,25.88
2023-05-06T03:06:30.379Z,25.87
2023-05-06T03:07:00.919Z,25.84
2023-05-06T03:07:31.276Z,25.85
2023-05-06T03:08:01.704Z,25.86
2023-05-06T03:08:32.118Z,25.87
2023-05-06T03:09:02.544Z,25.84
2023-05-06T03:09:32.982Z,25.86
2023-05-06T03:10:03.406Z,25.87
2023-05-06T03:10:33.860Z,25.86
2023-05-06T03:11:05.066Z,25.86
2023-05-06T03:11:36.665Z,25.89
2023-05-06T03:12:07.090Z,25.92
2023-05-06T03:12:37.531Z,25.93
2023-05-06T03:13:07.954Z,25.91
2023-05-06T03:13:38.373Z,25.93
2023-05-06T03:14:08.793Z,25.95
2023-05-06T03:14:39.230Z,25.95
2023-05-06T03:15:09.856Z,25.95
2023-05-06T03:15:40.384Z,25.96
2023-05-06T03:16:10.857Z,25.94
2023-05-06T03:16:41.322Z,25.90
2023-05-06T03:17:11.723Z,25.86
2023-05-06T03:17:42.179Z,25.87
2023-05-06T03:18:12.574Z,25.87
2023-05-06T03:18:43.080Z,25.89
2023-05-06T03:19:13.447Z,25.87
2023-05-06T03:19:43.868Z,25.90
2023-05-06T03:20:14.299Z,25.91
2023-05-06T03:20:44.721Z,25.89
2023-05-06T03:21:15.152Z,25.89
2023-05-06T03:21:45.657Z,25.90
2023-05-06T03:22:16.120Z,25.90
2023-05-06T03:22:46.483Z,25.87
2023-05-06T03:23:16.907Z,25.88
2023-05-06T03:23:47.329Z,25.90
2023-05-06T03:24:17.759Z,25.87
2023-05-06T03:24:48.191Z,25.87
2023-05-06T03:25:18.619Z,25.90
2023-05-06T03:25:49.048Z,25.91
2023-05-06T03:26:19.479Z,25.90
2023-05-06T03:26:49.899Z,25.90
2023-05-06T03:27:20.344Z,25.91
2023-05-06T03:27:50.756Z,25.91
2023-05-06T03:28:21.238Z,25.88
2023-05-06T03:28:51.642Z,25.83
2023-05-06T03:29:22.062Z,25.79
2023-05-06T03:29:52.514Z,25.78
2023-05-06T03:30:22.933Z,25.77
2023-05-06T03:30:53.371Z,25.74
2023-05-06T03:31:23.807Z,25.76
2023-05-06T03:31:54.306Z,25.80
2023-05-06T03:32:24.798Z,25.85
2023-05-06T03:32:55.233Z,25.84
2023-05-06T03:33:25.622Z,25.83
2023-05-06T03:33:56.042Z,25.85
2023-05-06T03:34:26.490Z,25.87
2023-05-06T03:34:56.913Z,25.86
2023-05-06T03:35:27.330Z,25.86
2023-05-06T03:35:57.758Z,25.87
2023-05-06T03:36:28.202Z,25.87
2023-05-06T03:36:58.601Z,25.87
2023-05-06T03:37:29.120Z,25.89
2023-05-06T03:37:59.494Z,25.89
2023-05-06T03:38:29.918Z,25.86
2023-05-06T03:39:00.340Z,25.80
2023-05-06T03:39:30.771Z,25.83
2023-05-06T03:40:01.205Z,25.86
2023-05-06T03:40:31.633Z,25.82
2023-05-06T03:41:02.054Z,25.82
2023-05-06T03:41:32.480Z,25.85
2023-05-06T03:42:02.902Z,25.85
2023-05-06T03:42:33.325Z,25.81
2023-05-06T03:43:03.762Z,25.83
2023-05-06T03:43:34.166Z,25.84
2023-05-06T03:44:04.615Z,25.85
2023-05-06T03:44:35.030Z,25.87
2023-05-06T03:45:05.450Z,25.89
2023-05-06T03:45:35.879Z,25.91
2023-05-06T03:46:06.356Z,25.91
2023-05-06T03:46:36.810Z,25.92
2023-05-06T03:47:07.219Z,25.92
2023-05-06T03:47:37.651Z,25.93
2023-05-06T03:48:08.131Z,25.89
2023-05-06T03:48:38.535Z,25.86
2023-05-06T03:49:08.973Z,25.86
2023-05-06T03:49:39.403Z,25.87
2023-05-06T03:50:09.816Z,25.89
2023-05-06T03:50:40.247Z,25.87
2023-05-06T03:51:10.668Z,25.84
2023-05-06T03:51:41.094Z,25.85
2023-05-06T03:52:11.514Z,25.88
2023-05-06T03:52:42.041Z,25.88
2023-05-06T03:53:12.411Z,25.84
2023-05-06T03:53:42.846Z,25.83
2023-05-06T03:54:13.274Z,25.84
2023-05-06T03:54:43.693Z,25.84
2023-05-06T03:55:14.122Z,25.83
2023-05-06T03:55:44.544Z,25.82
2023-05-06T03:56:14.967Z,25.82
2023-05-06T03:56:45.390Z,25.82
2023-05-06T03:57:15.817Z,25.83
2023-05-06T03:57:46.241Z,25.83
2023-05-06T03:58:16.666Z,25.85
2023-05-06T03:58:47.097Z,25.86
2023-05-06T03:59:17.526Z,25.85
2023-05-06T03:59:47.954Z,25.80
2023-05-06T04:00:18.370Z,25.82
2023-05-06T04:00:48.791Z,25.78
2023-05-06T04:01:19.210Z,25.76
2023-05-06T04:01:49.656Z,25.78
2023-05-06T04:02:20.108Z,25.81
2023-05-06T04:02:50.679Z,25.78
2023-05-06T04:03:21.246Z,25.79
2023-05-06T04:03:51.647Z,25.80
2023-05-06T04:04:22.081Z,25.81
2023-05-06T04:04:52.496Z,25.80
2023-05-06T04:05:22.937Z,25.82
2023-05-06T04:05:53.351Z,25.83
2023-05-06T04:06:23.819Z,25.81
2023-05-06T04:06:54.239Z,25.79
2023-05-06T04:07:24.660Z,25.78
2023-05-06T04:07:55.196Z,25.77
2023-05-06T04:08:25.578Z,25.77
2023-05-06T04:08:56.003Z,25.76
2023-05-06T04:09:26.460Z,25.76
2023-05-06T04:09:56.857Z,25.77
2023-05-06T04:10:27.278Z,25.75
2023-05-06T04:10:57.753Z,25.74
2023-05-06T04:11:29.799Z,25.77
2023-05-06T04:12:00.339Z,25.80
2023-05-06T04:12:30.763Z,25.80
2023-05-06T04:13:01.217Z,25.81
2023-05-06T04:13:31.620Z,25.84
2023-05-06T04:14:02.042Z,25.83
2023-05-06T04:14:32.464Z,25.78
2023-05-06T04:15:02.899Z,25.79
2023-05-06T04:15:33.325Z,25.77
2023-05-06T04:16:03.806Z,25.72
2023-05-06T04:16:34.237Z,25.73
2023-05-06T04:17:04.660Z,25.75
2023-05-06T04:17:35.088Z,25.75
2023-05-06T04:18:05.600Z,25.75
2023-05-06T04:18:36.041Z,25.78
2023-05-06T04:19:06.699Z,25.78
2023-05-06T04:19:37.145Z,25.78
2023-05-06T04:20:07.571Z,25.79
2023-05-06T04:20:38.003Z,25.80
2023-05-06T04:21:08.408Z,25.79
2023-05-06T04:21:38.838Z,25.79
2023-05-06T04:22:09.265Z,25.80
2023-05-06T04:22:39.688Z,25.80
2023-05-06T04:23:10.142Z,25.78
2023-05-06T04:23:40.541Z,25.77
2023-05-06T04:24:10.967Z,25.79
2023-05-06T04:24:41.385Z,25.81
2023-05-06T04:25:12.119Z,25.83
2023-05-06T04:25:42.678Z,25.83
2023-05-06T04:26:13.095Z,25.84
2023-05-06T04:26:43.521Z,25.81
2023-05-06T04:27:13.942Z,25.83
2023-05-06T04:27:44.381Z,25.85
2023-05-06T04:28:14.805Z,25.85
2023-05-06T04:28:45.225Z,25.81
2023-05-06T04:29:15.642Z,25.82
2023-05-06T04:29:46.087Z,25.80
2023-05-06T04:30:16.490Z,25.79
2023-05-06T04:30:46.914Z,25.81
2023-05-06T04:31:17.410Z,25.77
2023-05-06T04:31:47.815Z,25.78
2023-05-06T04:32:18.272Z,25.81
2023-05-06T04:32:48.734Z,25.84
2023-05-06T04:33:19.137Z,25.86
2023-05-06T04:33:49.560Z,25.85
2023-05-06T04:34:19.977Z,25.86
2023-05-06T04:34:50.401Z,25.85
2023-05-06T04:35:20.834Z,25.86
2023-05-06T04:35:51.249Z,25.85
2023-05-06T04:36:21.728Z,25.84
2023-05-06T04:36:52.151Z,25.83
2023-05-06T04:37:22.590Z,25.84
2023-05-06T04:37:53.009Z,25.86
2023-05-06T04:38:23.528Z,25.86
2023-05-06T04:38:53.891Z,25.81
2023-05-06T04:39:24.320Z,25.81
2023-05-06T04:39:54.731Z,25.81
2023-05-06T04:40:25.152Z,25.77
2023-05-06T04:40:55.595Z,25.76
2023-05-06T04:41:26.069Z,25.78
2023-05-06T04:41:56.464Z,25.76
2023-05-06T04:42:26.900Z,25.71
2023-05-06T04:42:57.329Z,25.71
2023-05-06T04:43:27.756Z,25.73
2023-05-06T04:43:58.179Z,25.77
2023-05-06T04:44:28.606Z,25.77
2023-05-06T04:44:59.037Z,25.73
2023-05-06T04:45:29.471Z,25.73
2023-05-06T04:45:59.968Z,25.76
2023-05-06T04:46:30.400Z,25.71
2023-05-06T04:47:00.840Z,25.70
2023-05-06T04:47:31.275Z,25.74
2023-05-06T04:48:01.798Z,25.77
2023-05-06T04:48:32.204Z,25.76
2023-05-06T04:49:02.618Z,25.75
2023-05-06T04:49:33.036Z,25.80
2023-05-06T04:50:03.454Z,25.85
2023-05-06T04:50:33.876Z,25.86
2023-05-06T04:51:04.335Z,25.87
2023-05-06T04:51:34.752Z,25.87
2023-05-06T04:52:05.170Z,25.83
2023-05-06T04:52:35.589Z,25.81
2023-05-06T04:53:06.084Z,25.83
2023-05-06T04:53:36.477Z,25.83
2023-05-06T04:54:06.893Z,25.83
2023-05-06T04:54:37.301Z,25.81
2023-05-06T04:55:07.839Z,25.80
2023-05-06T04:55:38.286Z,25.78
2023-05-06T04:56:08.714Z,25.77
2023-05-06T04:56:39.145Z,25.78
2023-05-06T04:57:09.567Z,25.75
2023-05-06T04:57:39.988Z,25.74
2023-05-06T04:58:10.408Z,25.77
2023-05-06T04:58:40.833Z,25.78
2023-05-06T04:59:11.259Z,25.76
2023-05-06T04:59:41.677Z,25.74
2023-05-06T05:00:12.301Z,25.75
2023-05-06T05:00:42.742Z,25.79
2023-05-06T05:01:13.201Z,25.77
2023-05-06T05:01:43.784Z,25.73
2023-05-06T05:02:14.339Z,25.73
2023-05-06T05:02:44.899Z,25.75
2023-05-06T05:03:15.436Z,25.74
2023-05-06T05:03:45.920Z,25.74
2023-05-06T05:04:16.312Z,25.77
2023-05-06T05:04:46.744Z,25.79
2023-05-06T05:05:17.185Z,25.78
2023-05-06T05:05:47.587Z,25.80
2023-05-06T05:06:18.025Z,25.83
2023-05-06T05:06:48.456Z,25.84
2023-05-06T05:07:18.871Z,25.83
2023-05-06T05:07:49.301Z,25.83
2023-05-06T05:08:19.725Z,25.83
2023-05-06T05:08:50.192Z,25.82
2023-05-06T05:09:20.579Z,25.76
2023-05-06T05:09:51.007Z,25.73
2023-05-06T05:10:21.425Z,25.74
2023-05-06T05:10:51.858Z,25.75
2023-05-06T05:11:22.286Z,25.73
2023-05-06T05:11:52.704Z,25.71
2023-05-06T05:12:23.126Z,25.70
2023-05-06T05:12:53.596Z,25.75
2023-05-06T05:13:23.993Z,25.76
2023-05-06T05:13:56.484Z,25.71
2023-05-06T05:14:27.486Z,25.73
2023-05-06T05:14:57.914Z,25.75
2023-05-06T05:15:28.348Z,25.76
2023-05-06T05:15:58.779Z,25.77
2023-05-06T05:16:29.223Z,25.79
2023-05-06T05:16:59.649Z,25.79
2023-05-06T05:17:30.117Z,25.75
2023-05-06T05:18:00.525Z,25.72
2023-05-06T05:18:30.921Z,25.73
2023-05-06T05:19:03.534Z,25.76
2023-05-06T05:19:34.337Z,25.76
2023-05-06T05:20:04.791Z,25.74
2023-05-06T05:20:35.237Z,25.74
2023-05-06T05:21:05.657Z,25.76
2023-05-06T05:21:36.148Z,25.77
2023-05-06T05:22:06.610Z,25.76
2023-05-06T05:22:37.051Z,25.76
2023-05-06T05:23:07.469Z,25.74
2023-05-06T05:23:37.886Z,25.73
2023-05-06T05:24:08.368Z,25.75
2023-05-06T05:24:38.756Z,25.76
2023-05-06T05:25:09.257Z,25.76
2023-05-06T05:25:39.634Z,25.77
2023-05-06T05:26:10.054Z,25.79
2023-05-06T05:26:40.489Z,25.81
2023-05-06T05:27:10.906Z,25.80
2023-05-06T05:27:41.330Z,25.78
2023-05-06T05:28:11.752Z,25.77
2023-05-06T05:28:42.173Z,25.80
2023-05-06T05:29:12.601Z,25.81
2023-05-06T05:29:43.019Z,25.79
2023-05-06T05:30:13.458Z,25.75
2023-05-06T05:30:43.875Z,25.75
2023-05-06T05:31:14.317Z,25.77
2023-05-06T05:31:44.727Z,25.78
2023-05-06T05:32:15.173Z,25.75
2023-05-06T05:32:45.718Z,25.74
2023-05-06T05:33:16.163Z,25.75
2023-05-06T05:33:46.638Z,25.76
2023-05-06T05:34:17.025Z,25.73
2023-05-06T05:34:47.474Z,25.73
2023-05-06T05:35:17.893Z,25.76
2023-05-06T05:35:48.314Z,25.77
2023-05-06T05:36:18.737Z,25.78
2023-05-06T05:36:49.169Z,25.74
2023-05-06T05:37:19.585Z,25.74
2023-05-06T05:37:50.001Z,25.74
2023-05-06T05:38:20.417Z,25.73
2023-05-06T05:38:50.849Z,25.74
2023-05-06T05:39:21.356Z,25.78
2023-05-06T05:39:51.732Z,25.76
2023-05-06T05:40:22.154Z,25.77
2023-05-06T05:40:52.586Z,25.79
2023-05-06T05:41:23.000Z,25.81
2023-05-06T05:41:53.417Z,25.85
2023-05-06T05:42:23.842Z,25.84
2023-05-06T05:42:54.267Z,25.81
2023-05-06T05:43:24.689Z,25.82
2023-05-06T05:43:55.119Z,25.84
2023-05-06T05:44:25.590Z,25.83
2023-05-06T05:44:56.004Z,25.85
2023-05-06T05:45:26.428Z,25.80
2023-05-06T05:45:56.917Z,25.77
2023-05-06T05:46:27.335Z,25.75
2023-05-06T05:46:57.733Z,25.76
2023-05-06T05:47:28.172Z,25.77
2023-05-06T05:47:58.643Z,25.71
2023-05-06T05:48:29.064Z,25.70
2023-05-06T05:48:59.469Z,25.73
2023-05-06T05:49:29.893Z,25.73
2023-05-06T05:50:00.314Z,25.71
2023-05-06T05:50:30.741Z,25.74
2023-05-06T05:51:01.158Z,25.71
2023-05-06T05:51:31.580Z,25.72
2023-05-06T05:52:02.006Z,25.76
2023-05-06T05:52:32.441Z,25.77
2023-05-06T05:53:02.854Z,25.76
2023-05-06T05:53:33.275Z,25.75
2023-05-06T05:54:03.713Z,25.74
2023-05-06T05:54:34.158Z,25.72
2023-05-06T05:55:04.562Z,25.74
2023-05-06T05:55:34.980Z,25.74
2023-05-06T05:56:05.400Z,25.76
2023-05-06T05:56:35.839Z,25.78
2023-05-06T05:57:06.257Z,25.79
2023-05-06T05:57:36.680Z,25.77
2023-05-06T05:58:07.107Z,25.79
2023-05-06T05:58:37.535Z,25.78
2023-05-06T05:59:07.963Z,25.78
2023-05-06T05:59:38.387Z,25.79
2023-05-06T06:00:08.829Z,25.81
2023-05-06T06:00:39.259Z,25.79
2023-05-06T06:01:09.672Z,25.81
2023-05-06T06:01:40.108Z,25.80
2023-05-06T06:02:10.529Z,25.78
2023-05-06T06:02:41.022Z,25.79
2023-05-06T06:03:11.606Z,25.79
2023-05-06T06:03:42.240Z,25.81
2023-05-06T06:04:12.809Z,25.83
2023-05-06T06:04:43.325Z,25.84
2023-05-06T06:05:13.705Z,25.78
2023-05-06T06:05:44.131Z,25.75
2023-05-06T06:06:14.549Z,25.76
2023-05-06T06:06:44.977Z,25.75
2023-05-06T06:07:15.405Z,25.74
2023-05-06T06:07:45.821Z,25.72
2023-05-06T06:08:16.274Z,25.71
2023-05-06T06:08:46.699Z,25.72
2023-05-06T06:09:17.143Z,25.73
2023-05-06T06:09:47.639Z,25.71
2023-05-06T06:10:18.010Z,25.75
2023-05-06T06:10:48.427Z,25.75
2023-05-06T06:11:18.845Z,25.72
2023-05-06T06:11:49.267Z,25.72
2023-05-06T06:12:19.702Z,25.72
2023-05-06T06:12:50.193Z,25.74
2023-05-06T06:13:20.753Z,25.70
2023-05-06T06:13:51.236Z,25.70
2023-05-06T06:14:21.673Z,25.71
2023-05-06T06:14:52.105Z,25.72
2023-05-06T06:15:22.515Z,25.73
2023-05-06T06:15:52.973Z,25.74
2023-05-06T06:16:23.371Z,25.72
2023-05-06T06:16:53.834Z,25.70
2023-05-06T06:17:24.262Z,25.70
2023-05-06T06:17:54.719Z,25.71
2023-05-06T06:18:25.109Z,25.75
2023-05-06T06:18:55.534Z,25.75
2023-05-06T06:19:25.959Z,25.71
2023-05-06T06:19:56.377Z,25.70
2023-05-06T06:20:26.811Z,25.69
2023-05-06T06:20:57.228Z,25.67
2023-05-06T06:21:27.669Z,25.69
2023-05-06T06:21:58.072Z,25.70
2023-05-06T06:22:28.492Z,25.70
2023-05-06T06:22:58.925Z,25.67
2023-05-06T06:23:29.353Z,25.69
2023-05-06T06:23:59.783Z,25.69
2023-05-06T06:24:30.199Z,25.71
2023-05-06T06:25:00.714Z,25.72
2023-05-06T06:25:31.104Z,25.71
2023-05-06T06:26:01.501Z,25.71
2023-05-06T06:26:31.924Z,25.73
2023-05-06T06:27:02.357Z,25.74
2023-05-06T06:27:32.788Z,25.74
2023-05-06T06:28:03.231Z,25.74
2023-05-06T06:28:33.654Z,25.77
2023-05-06T06:29:04.076Z,25.79
2023-05-06T06:29:34.526Z,25.79
2023-05-06T06:30:04.941Z,25.77
2023-05-06T06:30:35.372Z,25.73
2023-05-06T06:31:05.794Z,25.72
2023-05-06T06:31:38.276Z,25.75
2023-05-06T06:32:10.191Z,25.73